Time;durP1;ratioP1;P1;durP2;ratioP2;P2;SDS_P1;SDS_P2;PMS_P1;PMS_P2;Temp;Humidity;BMP_temperature;BMP_pressure;BME280_temperature;BME280_humidity;BME280_pressure;Samples;Min_cycle;Max_cycle;Signal;HPM_P1;HPM_P2
2022/05/25 00:01:04;;;;;;;0.70;0.50;;;12.40;99.90;;;;;;4971074;28;20190;-70
2022/05/25 00:03:32;;;;;;;0.80;0.67;;;12.40;99.90;;;;;;4956100;28;20225;-70
2022/05/25 00:05:58;;;;;;;0.80;0.50;;;12.30;99.90;;;;;;4956144;28;20900;-70
2022/05/25 00:08:24;;;;;;;0.80;0.60;;;12.30;99.90;;;;;;4956162;28;20549;-69
2022/05/25 00:10:50;;;;;;;1.00;0.70;;;12.30;99.90;;;;;;4953640;28;20520;-69
2022/05/25 00:13:15;;;;;;;0.80;0.50;;;12.30;99.90;;;;;;4956089;28;20405;-70
2022/05/25 00:15:41;;;;;;;0.80;0.60;;;12.30;99.90;;;;;;4956533;28;20170;-70
2022/05/25 00:18:07;;;;;;;0.80;0.50;;;12.30;99.90;;;;;;4954590;28;20193;-70
2022/05/25 00:20:34;;;;;;;0.90;0.70;;;12.20;99.90;;;;;;4955902;28;20194;-70
2022/05/25 00:22:59;;;;;;;0.70;0.50;;;12.30;99.90;;;;;;4956080;28;20170;-70
2022/05/25 00:25:30;;;;;;;0.80;0.53;;;12.20;99.90;;;;;;4956058;28;20771;-69
2022/05/25 00:27:56;;;;;;;0.80;0.60;;;12.20;99.90;;;;;;4955854;28;20175;-69
2022/05/25 00:30:23;;;;;;;0.80;0.60;;;12.20;99.90;;;;;;4955277;28;20492;-71
2022/05/25 00:32:48;;;;;;;1.00;0.70;;;12.20;99.90;;;;;;4954321;28;20428;-70
2022/05/25 00:35:17;;;;;;;0.80;0.60;;;12.20;99.90;;;;;;4955676;28;20414;-70
2022/05/25 00:37:43;;;;;;;0.80;0.60;;;12.20;99.90;;;;;;4955502;28;20177;-70
2022/05/25 00:40:11;;;;;;;0.80;0.50;;;12.10;99.90;;;;;;4955798;28;20429;-70
2022/05/25 00:42:38;;;;;;;0.73;0.50;;;12.10;99.90;;;;;;4954311;28;20174;-70
2022/05/25 00:45:05;;;;;;;0.80;0.50;;;12.10;99.90;;;;;;4955965;29;20933;-71
2022/05/25 00:47:32;;;;;;;0.90;0.70;;;12.00;99.90;;;;;;4955549;28;20423;-71
2022/05/25 00:49:58;;;;;;;0.80;0.50;;;12.00;99.90;;;;;;4955472;28;20465;-69
2022/05/25 00:52:26;;;;;;;0.80;0.60;;;12.00;99.90;;;;;;4953644;28;20799;-70
2022/05/25 00:54:55;;;;;;;0.80;0.60;;;12.00;99.90;;;;;;4955276;28;20410;-70
2022/05/25 00:57:30;;;;;;;0.80;0.53;;;12.00;99.90;;;;;;4954960;28;20480;-70
2022/05/25 01:00:04;;;;;;;0.80;0.60;;;12.00;99.90;;;;;;4955261;28;20524;-70
2022/05/25 01:02:33;;;;;;;0.80;0.50;;;11.90;99.90;;;;;;4955548;28;20410;-71
2022/05/25 01:04:58;;;;;;;0.80;0.60;;;11.90;99.90;;;;;;4953875;28;20445;-70
2022/05/25 01:07:43;;;;;;;1.10;0.67;;;11.90;99.90;;;;;;4955141;28;20469;-70
2022/05/25 01:10:43;;;;;;;0.80;0.70;;;11.80;99.90;;;;;;4953570;28;20453;-70
2022/05/25 01:13:22;;;;;;;0.80;0.50;;;11.80;99.90;;;;;;4953765;29;20421;-70
2022/05/25 01:16:16;;;;;;;0.90;0.80;;;11.80;99.90;;;;;;4955145;28;20773;-71
2022/05/25 01:18:51;;;;;;;0.80;0.50;;;11.70;99.90;;;;;;4969683;28;20446;-70
2022/05/25 01:21:35;;;;;;;0.97;0.70;;;11.70;99.90;;;;;;4954748;28;20455;-70
2022/05/25 01:24:25;;;;;;;0.80;0.50;;;11.70;99.90;;;;;;4955045;28;20469;-70
2022/05/25 01:27:10;;;;;;;0.80;0.60;;;11.60;99.90;;;;;;4954477;28;20410;-70
2022/05/25 01:29:45;;;;;;;1.57;0.90;;;11.60;99.90;;;;;;4954885;28;20902;-71
2022/05/25 01:32:31;;;;;;;0.80;0.60;;;11.60;99.90;;;;;;4954592;28;20409;-71
2022/05/25 01:35:22;;;;;;;0.80;0.50;;;11.60;99.90;;;;;;4954818;28;20764;-70
2022/05/25 01:37:53;;;;;;;0.90;0.73;;;11.50;99.90;;;;;;4954979;28;20402;-70
2022/05/25 01:40:47;;;;;;;0.80;0.60;;;11.50;99.90;;;;;;4954891;28;20453;-69
2022/05/25 01:43:18;;;;;;;0.80;0.50;;;11.50;99.90;;;;;;4953715;28;20489;-70
2022/05/25 01:45:56;;;;;;;0.80;0.50;;;11.50;99.90;;;;;;4954808;28;20740;-71
2022/05/25 01:48:24;;;;;;;1.00;0.77;;;11.50;99.90;;;;;;4969533;28;20453;-71
2022/05/25 01:51:11;;;;;;;0.83;0.63;;;11.50;99.90;;;;;;4954657;28;20489;-69
2022/05/25 01:53:41;;;;;;;0.80;0.50;;;11.40;99.90;;;;;;4954268;28;20406;-70
2022/05/25 01:56:09;;;;;;;0.80;0.60;;;11.40;99.90;;;;;;4954598;28;20409;-71
2022/05/25 01:58:42;;;;;;;0.70;0.50;;;11.40;99.90;;;;;;4954487;28;20410;-71
2022/05/25 02:01:10;;;;;;;1.03;0.60;;;11.30;99.90;;;;;;4954237;28;20410;-70
2022/05/25 02:06:46;;;;;;;0.93;0.83;;;11.40;99.90;;;;;;4954042;29;20488;-71
2022/05/25 02:09:48;;;;;;;0.73;0.50;;;11.30;99.90;;;;;;4953972;28;20481;-71
2022/05/25 02:12:57;;;;;;;0.80;0.60;;;11.30;99.90;;;;;;4953620;28;20401;-70
2022/05/25 02:15:41;;;;;;;0.80;0.60;;;11.30;99.90;;;;;;4952472;28;20406;-70
2022/05/25 02:18:18;;;;;;;4.57;1.43;;;11.30;99.90;;;;;;4953786;28;20765;-71
2022/05/25 02:21:02;;;;;;;1.07;0.77;;;11.40;99.90;;;;;;4953876;28;20438;-70
2022/05/25 02:23:52;;;;;;;0.80;0.60;;;11.40;99.90;;;;;;4953722;28;20406;-71
2022/05/25 02:26:28;;;;;;;0.70;0.50;;;11.40;99.90;;;;;;4953822;28;20513;-70
2022/05/25 02:29:18;;;;;;;0.90;0.70;;;11.40;99.90;;;;;;4952196;28;20852;-71
2022/05/25 02:32:04;;;;;;;0.70;0.50;;;11.40;99.90;;;;;;4968252;28;20911;-71
2022/05/25 02:34:31;;;;;;;1.20;0.90;;;11.40;99.90;;;;;;4956200;28;20410;-71
2022/05/25 02:36:58;;;;;;;1.07;0.97;;;11.40;99.90;;;;;;4957416;28;20500;-70
2022/05/25 02:39:24;;;;;;;0.70;0.50;;;11.40;99.90;;;;;;4957385;28;20434;-71
2022/05/25 02:41:53;;;;;;;1.00;0.73;;;11.40;99.90;;;;;;4955699;28;20943;-70
2022/05/25 02:44:18;;;;;;;1.47;1.37;;;11.40;99.90;;;;;;4956075;29;20420;-71
2022/05/25 02:46:44;;;;;;;0.80;0.63;;;11.40;99.90;;;;;;4972038;28;20794;-71
2022/05/25 02:49:10;;;;;;;1.20;0.70;;;11.40;99.90;;;;;;4957096;28;20577;-71
2022/05/25 02:51:36;;;;;;;0.80;0.60;;;11.40;99.90;;;;;;4957020;28;20605;-71
2022/05/25 02:54:02;;;;;;;0.80;0.63;;;11.40;99.90;;;;;;4957136;28;20442;-70
2022/05/25 02:56:29;;;;;;;0.80;0.60;;;11.40;99.90;;;;;;4956043;29;20181;-71
2022/05/25 02:58:54;;;;;;;0.70;0.67;;;11.40;99.90;;;;;;4956972;28;20421;-71
2022/05/25 03:01:20;;;;;;;0.70;0.50;;;11.40;99.90;;;;;;4956922;28;20410;-70
2022/05/25 03:03:45;;;;;;;0.70;0.50;;;11.40;99.90;;;;;;4956716;28;20178;-71
2022/05/25 03:06:11;;;;;;;0.70;0.50;;;11.40;99.90;;;;;;4956890;28;20174;-71
2022/05/25 03:08:38;;;;;;;2.13;1.37;;;11.40;99.90;;;;;;4955893;28;20202;-71
2022/05/25 03:11:05;;;;;;;0.80;0.70;;;11.40;99.90;;;;;;4956861;28;20193;-71
2022/05/25 03:13:31;;;;;;;0.97;0.80;;;11.40;99.90;;;;;;4955548;28;20438;-71
2022/05/25 03:15:58;;;;;;;1.20;1.10;;;11.40;99.90;;;;;;4957355;28;20410;-71
2022/05/25 03:18:24;;;;;;;0.80;0.60;;;11.40;99.90;;;;;;4971881;28;20447;-71
2022/05/25 03:20:50;;;;;;;1.00;0.90;;;11.50;99.90;;;;;;4971874;28;20434;-71
2022/05/25 03:23:17;;;;;;;2.00;1.10;;;11.50;99.90;;;;;;4971388;28;20182;-71
2022/05/25 03:25:43;;;;;;;0.77;0.60;;;11.60;99.90;;;;;;4956693;28;20418;-71
2022/05/25 03:28:09;;;;;;;0.70;0.50;;;11.60;99.90;;;;;;4956546;28;20460;-71
2022/05/25 03:30:34;;;;;;;0.70;0.50;;;11.60;99.90;;;;;;4956414;28;20429;-71
2022/05/25 03:33:00;;;;;;;1.43;1.27;;;11.60;99.90;;;;;;4956315;28;20198;-70
2022/05/25 03:35:26;;;;;;;0.70;0.60;;;11.70;99.90;;;;;;4955263;28;20206;-71
2022/05/25 03:37:51;;;;;;;0.93;0.60;;;11.70;99.90;;;;;;4956373;28;20180;-70
2022/05/25 03:40:17;;;;;;;0.70;0.60;;;11.70;99.90;;;;;;4956284;28;20200;-71
2022/05/25 03:42:45;;;;;;;0.80;0.60;;;11.60;99.90;;;;;;4956316;28;20256;-70
2022/05/25 03:45:12;;;;;;;0.70;0.50;;;11.60;99.90;;;;;;4956461;28;20170;-70
2022/05/25 03:47:39;;;;;;;0.70;0.50;;;11.60;99.90;;;;;;4954962;28;20855;-71
2022/05/25 03:50:05;;;;;;;0.90;0.80;;;11.60;99.90;;;;;;4956555;28;20461;-70
2022/05/25 03:52:31;;;;;;;1.63;0.80;;;11.60;99.90;;;;;;4956344;28;20410;-70
2022/05/25 03:54:57;;;;;;;0.90;0.70;;;11.60;99.90;;;;;;4956908;28;20425;-69
2022/05/25 03:57:22;;;;;;;0.77;0.60;;;11.60;99.90;;;;;;4957141;28;20180;-70
2022/05/25 03:59:48;;;;;;;1.37;1.27;;;11.60;99.90;;;;;;4957112;28;20201;-71
2022/05/25 04:02:13;;;;;;;0.80;0.70;;;11.60;99.90;;;;;;4957057;28;20218;-70
2022/05/25 04:04:39;;;;;;;0.80;0.70;;;11.60;99.90;;;;;;4956051;28;20174;-70
2022/05/25 04:07:05;;;;;;;0.90;0.80;;;11.60;99.90;;;;;;4955974;28;20182;-70
2022/05/25 04:09:31;;;;;;;0.83;0.70;;;11.60;99.90;;;;;;4957123;29;20225;-70
2022/05/25 04:11:56;;;;;;;0.70;0.60;;;11.60;99.90;;;;;;4955741;28;20409;-70
2022/05/25 04:14:22;;;;;;;0.80;0.70;;;11.60;99.90;;;;;;4955758;28;20919;-70
2022/05/25 04:16:48;;;;;;;0.90;0.60;;;11.60;99.90;;;;;;4956973;28;20175;-71
2022/05/25 04:19:14;;;;;;;1.37;0.90;;;11.60;99.90;;;;;;4956219;28;20213;-70
2022/05/25 04:21:40;;;;;;;0.77;0.60;;;11.60;99.90;;;;;;4956952;28;20182;-70
2022/05/25 04:24:06;;;;;;;0.70;0.60;;;11.60;99.90;;;;;;4955823;28;20413;-70
2022/05/25 04:26:33;;;;;;;0.70;0.50;;;11.70;99.90;;;;;;4957163;28;20498;-70
2022/05/25 04:29:02;;;;;;;0.70;0.50;;;11.70;99.90;;;;;;4957210;28;20198;-70
2022/05/25 04:31:28;;;;;;;0.80;0.60;;;11.70;99.90;;;;;;4955693;28;20428;-70
2022/05/25 04:33:53;;;;;;;0.80;0.60;;;11.70;99.90;;;;;;4956410;28;20505;-70
2022/05/25 04:36:19;;;;;;;2.17;1.80;;;11.70;99.90;;;;;;4958084;28;20218;-70
2022/05/25 04:38:45;;;;;;;0.90;0.70;;;11.80;99.90;;;;;;4956968;28;20178;-71
2022/05/25 04:41:10;;;;;;;0.83;0.83;;;11.80;99.90;;;;;;4956413;28;20178;-71
2022/05/25 04:43:36;;;;;;;0.80;0.70;;;11.80;99.90;;;;;;4955629;28;20301;-70
2022/05/25 04:46:08;;;;;;;2.10;0.97;;;11.90;99.90;;;;;;4970183;28;20289;-71
2022/05/25 04:48:33;;;;;;;0.70;0.50;;;11.90;99.90;;;;;;4955243;28;20685;-71
2022/05/25 04:50:59;;;;;;;0.80;0.60;;;11.90;99.90;;;;;;4955038;28;20433;-71
2022/05/25 04:53:26;;;;;;;0.70;0.50;;;11.90;99.90;;;;;;4954939;28;20680;-71
2022/05/25 04:58:39;;;;;;;0.87;0.80;;;12.00;99.90;;;;;;4955204;29;20409;-71
2022/05/25 05:01:06;;;;;;;0.70;0.50;;;12.00;99.90;;;;;;4954760;28;20488;-70
2022/05/25 05:03:32;;;;;;;0.80;0.60;;;12.10;99.90;;;;;;4954714;28;20788;-71
2022/05/25 05:05:59;;;;;;;0.80;0.70;;;12.10;99.90;;;;;;4955064;28;20500;-71
2022/05/25 05:08:26;;;;;;;1.27;0.90;;;12.20;99.90;;;;;;4954881;28;20457;-71
2022/05/25 05:10:52;;;;;;;1.43;0.90;;;12.20;99.90;;;;;;4954773;28;20476;-71
2022/05/25 05:13:18;;;;;;;0.80;0.70;;;12.30;99.90;;;;;;4954914;28;20413;-71
2022/05/25 05:15:49;;;;;;;0.70;0.50;;;12.30;99.90;;;;;;4955055;28;20504;-71
2022/05/25 05:18:16;;;;;;;1.27;1.00;;;12.30;99.90;;;;;;4955269;28;20197;-70
2022/05/25 05:20:41;;;;;;;0.70;0.60;;;12.40;99.90;;;;;;4954847;28;20793;-70
2022/05/25 05:23:08;;;;;;;0.77;0.50;;;12.50;99.90;;;;;;4954646;28;20409;-70
2022/05/25 05:25:35;;;;;;;0.70;0.60;;;12.50;99.90;;;;;;4954816;28;20178;-71
2022/05/25 05:28:11;;;;;;;0.93;0.60;;;12.60;99.90;;;;;;4954585;28;20405;-70
2022/05/25 05:30:51;;;;;;;1.20;0.73;;;12.60;99.90;;;;;;4953221;28;20442;-71
2022/05/25 05:33:16;;;;;;;0.70;0.50;;;12.70;99.90;;;;;;4954313;28;20417;-70
2022/05/25 05:35:45;;;;;;;1.20;1.10;;;12.80;99.90;;;;;;4969221;28;20492;-71
2022/05/25 05:38:12;;;;;;;2.60;1.43;;;12.90;99.90;;;;;;4954299;28;20185;-71
2022/05/25 05:40:38;;;;;;;0.90;0.60;;;12.90;99.90;;;;;;4954342;28;20430;-70
2022/05/25 05:43:05;;;;;;;2.07;0.73;;;13.00;99.90;;;;;;4954087;28;20414;-70
2022/05/25 05:45:35;;;;;;;2.80;0.70;;;13.10;99.90;;;;;;4969452;28;20420;-71
2022/05/25 05:48:26;;;;;;;0.80;0.60;;;13.20;99.90;;;;;;4954608;28;20453;-71
2022/05/25 05:50:54;;;;;;;0.80;0.70;;;13.30;99.90;;;;;;4954498;28;20426;-71
2022/05/25 05:53:21;;;;;;;0.97;0.80;;;13.50;99.90;;;;;;4953878;28;20608;-71
2022/05/25 05:55:47;;;;;;;0.80;0.57;;;13.60;99.90;;;;;;4954152;28;20506;-71
2022/05/25 05:58:13;;;;;;;0.80;0.60;;;13.70;99.90;;;;;;4954213;28;20412;-70
2022/05/25 06:00:39;;;;;;;0.80;0.60;;;13.90;99.90;;;;;;4954069;28;20445;-71
2022/05/25 06:03:05;;;;;;;1.10;0.70;;;14.10;99.90;;;;;;4968716;28;20916;-72
2022/05/25 06:05:31;;;;;;;1.20;0.90;;;14.30;99.90;;;;;;4969008;28;20429;-70
2022/05/25 06:08:03;;;;;;;0.80;0.60;;;14.50;99.90;;;;;;4955463;28;20414;-71
2022/05/25 06:10:29;;;;;;;1.00;0.70;;;14.70;99.90;;;;;;4958150;28;20432;-71
2022/05/25 06:12:54;;;;;;;0.80;0.50;;;15.00;99.90;;;;;;4957785;28;20775;-71
2022/05/25 06:20:49;;;;;;;1.10;0.77;;;15.80;99.90;;;;;;4958811;29;20429;-72
2022/05/25 06:23:14;;;;;;;0.70;0.50;;;16.10;99.90;;;;;;4972729;28;20406;-70
2022/05/25 06:25:40;;;;;;;1.03;0.60;;;16.40;99.90;;;;;;4957587;28;20489;-71
2022/05/25 06:28:06;;;;;;;1.07;0.70;;;16.70;99.90;;;;;;4957802;28;20225;-72
2022/05/25 06:30:31;;;;;;;1.10;0.93;;;17.00;99.90;;;;;;4958030;28;20429;-71
2022/05/25 06:32:57;;;;;;;0.80;0.50;;;17.40;99.90;;;;;;4957201;28;20174;-71
2022/05/25 06:35:23;;;;;;;0.80;0.60;;;17.70;99.90;;;;;;4957522;28;20718;-70
2022/05/25 06:37:48;;;;;;;1.57;0.67;;;18.10;99.90;;;;;;4957501;28;20171;-71
2022/05/25 06:40:14;;;;;;;0.90;0.80;;;18.50;99.90;;;;;;4957721;28;20194;-71
2022/05/25 06:42:41;;;;;;;0.97;0.73;;;18.90;99.90;;;;;;4957095;28;20179;-71
2022/05/25 06:45:08;;;;;;;0.90;0.70;;;19.20;99.90;;;;;;4957787;28;20174;-70
2022/05/25 06:47:34;;;;;;;0.80;0.50;;;19.50;99.90;;;;;;4957558;28;20406;-71
2022/05/25 06:50:01;;;;;;;0.80;0.50;;;19.90;99.90;;;;;;4956054;28;20469;-71
2022/05/25 06:52:27;;;;;;;0.90;0.60;;;20.20;99.90;;;;;;4956952;28;20410;-71
2022/05/25 06:54:56;;;;;;;1.03;0.93;;;20.50;99.90;;;;;;4955965;29;20425;-72
2022/05/25 06:57:25;;;;;;;0.80;0.50;;;20.80;99.90;;;;;;4957167;28;20253;-71
2022/05/25 06:59:50;;;;;;;0.80;0.70;;;21.10;99.90;;;;;;4957349;28;20516;-71
2022/05/25 07:02:16;;;;;;;0.80;0.60;;;21.60;99.90;;;;;;4956875;28;20893;-70
2022/05/25 07:04:41;;;;;;;0.80;0.60;;;22.00;99.90;;;;;;4957185;28;20177;-71
2022/05/25 07:07:07;;;;;;;2.97;2.77;;;22.60;99.90;;;;;;4957208;28;20181;-72
2022/05/25 07:09:34;;;;;;;0.80;0.60;;;23.10;99.90;;;;;;4957055;28;20213;-72
2022/05/25 07:11:59;;;;;;;0.80;0.50;;;23.70;93.70;;;;;;4956594;28;20171;-70
2022/05/25 07:14:26;;;;;;;1.83;0.90;;;24.20;91.70;;;;;;4956712;28;20409;-71
2022/05/25 07:16:52;;;;;;;0.90;0.70;;;24.90;90.40;;;;;;4971717;28;20560;-72
2022/05/25 07:19:17;;;;;;;0.80;0.60;;;25.50;78.80;;;;;;4956514;28;20444;-71
2022/05/25 07:21:43;;;;;;;1.00;0.70;;;26.20;72.60;;;;;;4957164;28;20170;-71
2022/05/25 07:24:09;;;;;;;0.93;0.70;;;26.80;67.20;;;;;;4956526;28;20178;-71
2022/05/25 07:26:34;;;;;;;1.00;0.80;;;27.50;64.60;;;;;;4956536;28;20249;-71
2022/05/25 07:29:00;;;;;;;1.00;0.60;;;28.30;61.20;;;;;;4956589;28;20218;-71
2022/05/25 07:31:42;;;;;;;0.90;0.60;;;29.10;59.80;;;;;;4956635;28;20171;-71
2022/05/25 07:34:20;;;;;;;2.77;0.90;;;29.90;56.00;;;;;;4956503;28;20446;-72
2022/05/25 07:36:54;;;;;;;0.90;0.70;;;30.60;51.80;;;;;;4956761;28;20410;-72
2022/05/25 07:39:23;;;;;;;0.90;0.70;;;31.30;48.30;;;;;;4956287;29;20447;-72
2022/05/25 07:41:51;;;;;;;0.90;0.73;;;31.90;46.00;;;;;;4956160;28;20406;-72
2022/05/25 07:44:23;;;;;;;0.93;0.80;;;32.80;46.00;;;;;;4955978;28;20449;-72
2022/05/25 07:46:49;;;;;;;1.00;0.80;;;33.80;44.50;;;;;;4956110;28;20467;-72
2022/05/25 07:49:15;;;;;;;0.90;0.60;;;34.50;43.00;;;;;;4955987;28;20453;-71
2022/05/25 07:51:41;;;;;;;0.90;0.70;;;35.30;41.60;;;;;;4955960;28;20588;-71
2022/05/25 07:54:06;;;;;;;1.10;0.90;;;36.00;39.80;;;;;;4955567;28;20529;-72
2022/05/25 07:56:35;;;;;;;0.90;0.80;;;36.70;38.20;;;;;;4955658;28;20166;-69
2022/05/25 07:59:03;;;;;;;0.90;0.70;;;37.50;37.10;;;;;;4955710;28;20186;-72
2022/05/25 08:07:05;;;;;;;0.90;0.70;;;39.70;33.60;;;;;;4955963;29;20496;-69
2022/05/25 08:09:31;;;;;;;0.90;0.70;;;40.20;31.90;;;;;;4955705;28;20990;-69
2022/05/25 08:11:58;;;;;;;0.90;0.80;;;40.60;30.00;;;;;;4955818;28;20406;-70
2022/05/25 08:14:25;;;;;;;1.10;0.90;;;41.00;29.70;;;;;;4955451;28;20785;-69
2022/05/25 08:16:51;;;;;;;0.90;0.80;;;41.40;29.50;;;;;;4955809;28;20568;-70
2022/05/25 08:19:17;;;;;;;1.20;1.10;;;41.90;29.10;;;;;;4970277;28;20429;-69
2022/05/25 08:21:42;;;;;;;0.90;0.80;;;42.50;29.00;;;;;;4955590;28;20769;-70
2022/05/25 08:24:08;;;;;;;1.00;0.90;;;43.20;28.80;;;;;;4955083;28;20261;-70
2022/05/25 08:26:33;;;;;;;1.00;0.90;;;43.90;28.20;;;;;;4955337;28;20632;-71
2022/05/25 08:28:59;;;;;;;1.03;0.93;;;44.80;28.60;;;;;;4955220;28;21069;-70
2022/05/25 08:31:24;;;;;;;1.67;1.57;;;45.50;28.00;;;;;;4954193;28;20532;-70
2022/05/25 08:33:50;;;;;;;1.00;0.90;;;46.00;27.00;;;;;;4954908;28;20166;-69
2022/05/25 08:36:15;;;;;;;1.00;0.90;;;46.60;26.30;;;;;;4955093;28;20650;-71
2022/05/25 08:38:41;;;;;;;1.00;0.90;;;46.90;25.50;;;;;;4955010;28;20170;-70
2022/05/25 08:41:07;;;;;;;1.40;1.30;;;47.30;25.20;;;;;;4955081;28;20586;-71
2022/05/25 08:43:46;;;;;;;1.07;0.97;;;47.70;25.10;;;;;;4954757;28;20202;-71
2022/05/25 08:46:18;;;;;;;1.00;0.90;;;48.30;25.30;;;;;;4955058;28;20402;-71
2022/05/25 08:48:44;;;;;;;1.30;1.20;;;48.90;24.80;;;;;;4954812;28;20434;-70
2022/05/25 08:51:13;;;;;;;1.10;1.00;;;49.00;23.20;;;;;;4954747;28;20995;-70
2022/05/25 08:53:40;;;;;;;1.10;1.00;;;49.00;23.00;;;;;;4954836;28;20163;-70
2022/05/25 08:56:30;;;;;;;1.30;1.20;;;49.30;23.50;;;;;;4954773;28;20380;-71
2022/05/25 08:59:08;;;;;;;1.10;1.00;;;49.60;22.70;;;;;;4954697;28;20473;-71
2022/05/25 09:01:52;;;;;;;1.20;1.10;;;49.90;23.10;;;;;;4954746;28;20402;-70
2022/05/25 09:04:29;;;;;;;1.20;1.10;;;50.10;22.50;;;;;;4954456;28;20730;-71
2022/05/25 09:07:13;;;;;;;1.20;1.10;;;50.40;21.90;;;;;;4954652;28;20738;-70
2022/05/25 09:09:51;;;;;;;1.20;1.10;;;50.60;21.60;;;;;;4954553;28;20444;-70
2022/05/25 09:12:34;;;;;;;1.20;1.10;;;50.70;21.50;;;;;;4954311;28;20393;-70
2022/05/25 09:15:05;;;;;;;1.30;1.20;;;50.90;21.60;;;;;;4953189;28;20461;-71
2022/05/25 09:17:48;;;;;;;1.30;1.20;;;51.30;22.20;;;;;;4954322;28;20416;-71
2022/05/25 09:20:22;;;;;;;1.30;1.20;;;51.70;21.90;;;;;;4954310;28;20440;-71
2022/05/25 09:22:47;;;;;;;1.20;1.10;;;52.10;21.20;;;;;;4954228;28;20392;-71
2022/05/25 09:25:15;;;;;;;1.30;1.20;;;52.10;20.70;;;;;;4954250;28;20739;-71
2022/05/25 09:27:46;;;;;;;1.20;1.10;;;52.20;21.00;;;;;;4954299;28;20171;-72
2022/05/25 09:30:13;;;;;;;1.20;1.10;;;52.20;20.10;;;;;;4954172;28;20412;-71
2022/05/25 09:33:03;;;;;;;1.20;1.10;;;52.00;20.00;;;;;;4954254;28;20393;-72
2022/05/25 09:35:33;;;;;;;1.13;1.03;;;51.30;20.40;;;;;;4954371;28;20388;-72
2022/05/25 09:38:04;;;;;;;1.20;1.10;;;51.10;20.20;;;;;;4954170;28;20413;-72
2022/05/25 09:40:34;;;;;;;1.20;1.10;;;51.20;20.40;;;;;;4952862;28;20435;-72
2022/05/25 09:43:04;;;;;;;1.30;1.20;;;51.40;20.30;;;;;;4952583;28;20457;-71
2022/05/25 09:45:40;;;;;;;1.30;1.20;;;51.50;20.00;;;;;;4954146;28;20758;-71
2022/05/25 09:48:22;;;;;;;1.13;1.03;;;51.60;20.10;;;;;;4954151;28;20434;-72
2022/05/25 09:50:54;;;;;;;1.30;1.20;;;51.70;20.00;;;;;;4952763;28;20449;-71
2022/05/25 09:53:23;;;;;;;1.30;1.20;;;51.70;19.30;;;;;;4953674;28;20397;-71
2022/05/25 09:56:12;;;;;;;1.30;1.20;;;51.80;19.80;;;;;;4953996;28;20421;-72
2022/05/25 09:58:43;;;;;;;1.20;1.10;;;52.20;20.60;;;;;;4953779;28;20793;-71
2022/05/25 10:01:32;;;;;;;1.50;1.40;;;52.40;19.60;;;;;;4954157;28;20817;-72
2022/05/25 10:04:00;;;;;;;1.30;1.20;;;52.00;19.50;;;;;;4953755;28;20742;-70
2022/05/25 10:06:32;;;;;;;1.20;1.10;;;52.20;19.70;;;;;;4953988;28;20518;-71
2022/05/25 10:09:19;;;;;;;1.30;1.20;;;52.20;19.90;;;;;;4953894;28;20393;-72
2022/05/25 10:11:50;;;;;;;1.30;1.20;;;51.90;20.00;;;;;;4953857;28;20987;-71
2022/05/25 10:14:32;;;;;;;1.30;1.20;;;52.30;20.50;;;;;;4953692;28;20463;-72
2022/05/25 10:17:04;;;;;;;1.30;1.20;;;53.00;19.90;;;;;;4953729;28;20408;-72
2022/05/25 10:19:33;;;;;;;1.40;1.30;;;53.20;19.60;;;;;;4952275;28;20822;-72
2022/05/25 10:22:00;;;;;;;1.40;1.30;;;53.60;19.20;;;;;;4953625;28;20500;-72
2022/05/25 10:24:29;;;;;;;1.60;1.50;;;54.20;19.60;;;;;;4951840;28;20908;-71
2022/05/25 10:26:58;;;;;;;1.70;1.60;;;54.60;19.40;;;;;;4953748;28;20760;-72
2022/05/25 10:38:27;;;;;;;1.60;1.50;;;55.80;18.80;;;;;;4953601;29;20541;-72
2022/05/25 10:40:54;;;;;;;1.93;1.83;;;56.30;19.10;;;;;;4952016;28;20436;-73
2022/05/25 10:43:38;;;;;;;1.80;1.70;;;55.70;18.90;;;;;;4951950;28;20934;-72
2022/05/25 10:46:03;;;;;;;1.60;1.50;;;54.50;18.30;;;;;;4953435;28;20472;-71
2022/05/25 10:49:13;;;;;;;1.50;1.40;;;54.10;17.90;;;;;;4953192;28;20421;-72
2022/05/25 10:51:54;;;;;;;1.40;1.30;;;54.00;18.30;;;;;;4931823;29;20193;-72
2022/05/25 10:54:47;;;;;;;1.50;1.40;;;54.30;18.60;;;;;;4951237;28;20392;-72
2022/05/25 10:57:33;;;;;;;1.50;1.40;;;54.40;18.30;;;;;;4956736;28;20421;-72
2022/05/25 11:00:17;;;;;;;1.40;1.30;;;54.50;19.10;;;;;;4956514;28;20845;-71
2022/05/25 11:03:06;;;;;;;1.30;1.20;;;53.30;18.90;;;;;;4956435;28;20485;-72
2022/05/25 11:05:51;;;;;;;1.17;1.07;;;51.10;19.30;;;;;;4956861;28;20504;-72
2022/05/25 11:08:46;;;;;;;1.17;1.07;;;49.30;19.50;;;;;;4956575;28;20383;-71
2022/05/25 11:11:29;;;;;;;1.00;0.90;;;47.90;19.90;;;;;;4948388;28;20421;-71
2022/05/25 11:14:39;;;;;;;1.20;1.10;;;45.90;20.50;;;;;;4956828;28;20398;-72
2022/05/25 11:17:32;;;;;;;1.03;0.93;;;44.10;20.40;;;;;;4935022;29;20517;-72
2022/05/25 11:20:22;;;;;;;0.90;0.80;;;42.10;21.10;;;;;;4970467;28;20504;-71
2022/05/25 11:23:09;;;;;;;1.00;0.90;;;40.40;21.60;;;;;;4956075;28;20434;-70
2022/05/25 11:26:10;;;;;;;1.00;0.80;;;38.90;22.50;;;;;;4956303;28;20405;-71
2022/05/25 11:28:47;;;;;;;0.90;0.80;;;38.50;23.50;;;;;;4956434;28;20406;-72
2022/05/25 11:31:36;;;;;;;1.00;0.80;;;39.40;23.80;;;;;;4954997;28;20417;-72
2022/05/25 11:34:05;;;;;;;1.30;1.20;;;41.40;23.60;;;;;;4955812;28;20410;-71
2022/05/25 11:36:30;;;;;;;1.00;0.90;;;43.40;23.20;;;;;;4956198;28;20920;-72
2022/05/25 11:39:23;;;;;;;1.10;1.00;;;45.10;22.20;;;;;;4955895;28;20453;-72
2022/05/25 11:42:03;;;;;;;1.00;0.90;;;46.50;21.60;;;;;;4956074;28;20166;-71
2022/05/25 11:45:08;;;;;;;1.07;0.97;;;45.70;20.50;;;;;;4955828;28;20414;-72
2022/05/25 11:47:45;;;;;;;1.00;0.90;;;44.50;20.40;;;;;;4955838;28;20465;-72
2022/05/25 11:50:17;;;;;;;1.37;1.27;;;44.50;21.00;;;;;;4955639;28;20425;-71
2022/05/25 11:52:56;;;;;;;1.10;1.00;;;45.70;21.60;;;;;;4955661;28;20419;-72
2022/05/25 11:55:35;;;;;;;1.10;1.00;;;47.00;21.20;;;;;;4955773;28;20924;-72
2022/05/25 11:58:22;;;;;;;1.07;0.97;;;48.20;21.10;;;;;;4955720;29;20461;-72
2022/05/25 12:01:09;;;;;;;1.20;1.10;;;49.00;19.90;;;;;;4955477;29;20409;-71
2022/05/25 12:04:05;;;;;;;1.20;1.10;;;49.80;20.00;;;;;;4955448;28;20406;-72
2022/05/25 12:06:59;;;;;;;1.17;1.07;;;50.50;19.90;;;;;;4955328;28;20965;-73
2022/05/25 12:09:48;;;;;;;1.30;1.20;;;51.10;19.70;;;;;;4970475;28;20952;-72
2022/05/25 12:12:35;;;;;;;1.13;1.03;;;51.60;19.80;;;;;;4955358;28;20382;-72
2022/05/25 12:15:23;;;;;;;1.30;1.20;;;51.00;19.40;;;;;;4954320;28;20432;-71
2022/05/25 12:18:03;;;;;;;1.23;1.10;;;49.70;19.00;;;;;;4970259;28;20411;-71
2022/05/25 12:20:38;;;;;;;1.10;1.00;;;49.40;19.10;;;;;;4953983;28;20977;-72
2022/05/25 12:23:12;;;;;;;1.57;1.20;;;48.80;19.10;;;;;;4953703;29;20945;-71
2022/05/25 12:25:42;;;;;;;1.00;0.90;;;47.20;19.20;;;;;;4955668;28;20409;-71
2022/05/25 12:28:09;;;;;;;1.17;1.07;;;46.00;19.60;;;;;;4955234;28;20485;-72
2022/05/25 12:30:44;;;;;;;1.10;1.00;;;45.90;20.40;;;;;;4953664;28;20805;-72
2022/05/25 12:33:13;;;;;;;1.10;1.00;;;46.10;20.80;;;;;;4954683;28;20424;-72
2022/05/25 12:35:40;;;;;;;1.20;1.10;;;46.40;21.20;;;;;;4954814;28;20405;-71
2022/05/25 12:38:08;;;;;;;1.10;1.00;;;46.90;21.20;;;;;;4954790;28;20406;-72
2022/05/25 12:40:43;;;;;;;1.10;1.00;;;47.30;21.30;;;;;;4955263;28;20404;-72
2022/05/25 12:43:36;;;;;;;1.00;0.90;;;46.80;20.40;;;;;;4955042;28;20410;-71
2022/05/25 12:48:58;;;;;;;1.00;0.90;;;43.40;20.40;;;;;;4954677;29;20405;-72
2022/05/25 12:51:29;;;;;;;1.00;0.90;;;42.40;21.30;;;;;;4954859;28;20413;-72
2022/05/25 12:53:57;;;;;;;1.00;0.90;;;42.70;21.80;;;;;;4954320;28;20417;-72
2022/05/25 12:56:26;;;;;;;0.90;0.80;;;43.60;22.20;;;;;;4954653;28;20402;-71
2022/05/25 12:58:54;;;;;;;1.00;0.90;;;43.40;21.60;;;;;;4954434;28;20465;-72
2022/05/25 13:01:23;;;;;;;0.90;0.80;;;42.10;21.50;;;;;;4954463;28;20952;-72
2022/05/25 13:03:49;;;;;;;0.90;0.80;;;40.80;22.10;;;;;;4952897;29;20410;-71
2022/05/25 13:06:21;;;;;;;0.90;0.80;;;40.50;22.60;;;;;;4954658;28;20410;-71
2022/05/25 13:08:47;;;;;;;0.90;0.80;;;40.30;22.70;;;;;;4954152;28;20253;-70
2022/05/25 13:11:45;;;;;;;0.90;0.80;;;39.90;22.80;;;;;;4954441;28;20442;-71
2022/05/25 13:14:16;;;;;;;1.20;1.10;;;39.60;22.90;;;;;;4954505;28;20174;-71
2022/05/25 13:16:42;;;;;;;0.90;0.80;;;39.20;22.90;;;;;;4954073;28;20394;-71
2022/05/25 13:19:32;;;;;;;0.90;0.80;;;38.60;22.90;;;;;;4953972;28;20460;-71
2022/05/25 13:22:04;;;;;;;0.90;0.80;;;38.20;23.60;;;;;;4954609;28;20167;-71
2022/05/25 13:24:41;;;;;;;0.90;0.80;;;37.60;23.90;;;;;;4954265;28;20430;-70
2022/05/25 13:27:15;;;;;;;1.27;1.00;;;37.00;24.30;;;;;;4954462;28;20398;-72
2022/05/25 13:30:02;;;;;;;1.00;0.90;;;36.40;24.10;;;;;;4954454;28;20429;-72
2022/05/25 13:32:46;;;;;;;0.90;0.70;;;35.70;24.40;;;;;;4954877;28;20586;-72
2022/05/25 13:35:20;;;;;;;0.90;0.80;;;35.10;25.10;;;;;;4954770;28;20413;-70
2022/05/25 13:38:07;;;;;;;1.00;0.90;;;34.50;25.10;;;;;;4954369;28;20755;-70
2022/05/25 13:40:42;;;;;;;2.03;0.80;;;33.90;25.20;;;;;;4949847;29;20484;-71
2022/05/25 13:43:18;;;;;;;0.90;0.70;;;33.30;25.90;;;;;;4954547;28;20408;-71